createdAt,value
2023-07-28T00:01:04.929Z,81.87
2023-07-28T00:03:38.753Z,81.87
2023-07-28T00:06:10.210Z,81.90
2023-07-28T00:08:42.112Z,81.88
2023-07-28T00:11:15.454Z,81.91
2023-07-28T00:13:46.887Z,81.78
2023-07-28T00:16:18.450Z,81.96
2023-07-28T00:18:50.068Z,81.94
2023-07-28T00:21:21.598Z,81.95
2023-07-28T00:23:53.012Z,82.02
2023-07-28T00:26:24.906Z,82.05
2023-07-28T00:28:56.527Z,82.18
2023-07-28T00:31:28.128Z,82.20
2023-07-28T00:33:59.533Z,82.14
2023-07-28T00:36:31.186Z,82.22
2023-07-28T00:39:02.754Z,82.16
2023-07-28T00:41:34.166Z,82.31
2023-07-28T00:44:05.929Z,82.13
2023-07-28T00:46:37.715Z,82.21
2023-07-28T00:49:09.580Z,82.19
2023-07-28T00:51:41.714Z,82.18
2023-07-28T00:54:14.369Z,82.11
2023-07-28T00:56:46.516Z,82.15
2023-07-28T00:59:18.532Z,81.99
2023-07-28T01:01:49.964Z,82.01
2023-07-28T01:04:21.999Z,81.99
2023-07-28T01:06:59.490Z,82.03
2023-07-28T01:09:39.145Z,81.92
2023-07-28T01:12:12.261Z,81.78
2023-07-28T01:14:45.196Z,81.76
2023-07-28T01:17:16.793Z,81.72
2023-07-28T01:19:48.575Z,81.65
2023-07-28T01:22:39.940Z,81.68
2023-07-28T01:25:20.397Z,81.76
2023-07-28T01:27:53.407Z,81.60
2023-07-28T01:30:27.050Z,81.50
2023-07-28T01:32:59.589Z,81.45
2023-07-28T01:35:31.532Z,81.43
2023-07-28T01:38:03.003Z,81.43
2023-07-28T01:40:34.525Z,81.48
2023-07-28T01:43:05.975Z,81.27
2023-07-28T01:45:37.697Z,81.35
2023-07-28T01:48:10.513Z,81.26
2023-07-28T01:50:42.244Z,81.28
2023-07-28T01:53:13.716Z,81.26
2023-07-28T01:55:45.185Z,81.49
2023-07-28T01:58:17.015Z,81.31
2023-07-28T02:00:48.571Z,81.39
2023-07-28T02:03:20.112Z,81.36
2023-07-28T02:05:51.712Z,81.43
2023-07-28T02:08:23.147Z,81.40
2023-07-28T02:10:56.752Z,81.38
2023-07-28T02:13:28.246Z,81.24
2023-07-28T02:15:59.708Z,81.34
2023-07-28T02:18:31.196Z,81.26
2023-07-28T02:21:02.702Z,81.34
2023-07-28T02:23:34.130Z,81.23
2023-07-28T02:26:05.683Z,81.18
2023-07-28T02:28:37.134Z,81.20
2023-07-28T02:31:08.608Z,81.24
2023-07-28T02:33:40.142Z,81.27
2023-07-28T02:36:11.583Z,81.06
2023-07-28T02:38:43.402Z,81.00
2023-07-28T02:41:14.929Z,81.03
2023-07-28T02:43:46.397Z,81.09
2023-07-28T02:46:17.982Z,81.08
2023-07-28T02:48:49.606Z,80.88
2023-07-28T02:51:21.056Z,81.10
2023-07-28T02:53:52.628Z,81.02
2023-07-28T02:56:24.056Z,80.98
2023-07-28T02:58:55.838Z,80.90
2023-07-28T03:01:27.256Z,80.95
2023-07-28T03:03:58.651Z,81.00
2023-07-28T03:06:30.177Z,80.90
2023-07-28T03:09:03.287Z,80.85
2023-07-28T03:11:34.830Z,80.78
2023-07-28T03:14:06.325Z,80.84
2023-07-28T03:16:38.312Z,80.75
2023-07-28T03:19:10.396Z,80.89
2023-07-28T03:21:41.917Z,80.80
2023-07-28T03:24:13.782Z,80.82
2023-07-28T03:26:45.518Z,80.79
2023-07-28T03:29:17.225Z,80.76
2023-07-28T03:31:48.738Z,80.81
2023-07-28T03:34:20.358Z,80.90
2023-07-28T03:36:51.881Z,80.84
2023-07-28T03:39:23.511Z,80.81
2023-07-28T03:41:55.128Z,80.91
2023-07-28T03:44:27.084Z,80.88
2023-07-28T03:46:58.542Z,80.98
2023-07-28T03:49:29.983Z,80.95
2023-07-28T03:52:01.592Z,81.07
2023-07-28T03:54:33.025Z,80.85
2023-07-28T03:57:04.518Z,80.90
2023-07-28T03:59:35.993Z,80.87
2023-07-28T04:02:08.124Z,81.07
2023-07-28T04:04:40.176Z,81.11
2023-07-28T04:07:11.841Z,81.06
2023-07-28T04:09:43.380Z,81.17
2023-07-28T04:12:14.938Z,81.19
2023-07-28T04:14:46.603Z,81.07
2023-07-28T04:17:18.070Z,81.00
2023-07-28T04:19:49.700Z,81.05
2023-07-28T04:22:22.574Z,81.19
2023-07-28T04:24:55.193Z,81.18
2023-07-28T04:27:26.648Z,80.97
2023-07-28T04:29:58.109Z,81.12
2023-07-28T04:32:29.549Z,81.09
2023-07-28T04:35:01.459Z,81.20
2023-07-28T04:37:32.949Z,81.12
2023-07-28T04:40:04.934Z,81.20
2023-07-28T04:42:37.327Z,81.24
2023-07-28T04:45:12.279Z,81.08
2023-07-28T04:47:43.770Z,81.14
2023-07-28T04:50:15.388Z,81.11
2023-07-28T04:52:46.867Z,81.18
2023-07-28T04:55:18.499Z,81.10
2023-07-28T04:57:50.254Z,81.10
2023-07-28T05:00:22.220Z,80.95
2023-07-28T05:02:53.664Z,81.10
2023-07-28T05:05:25.173Z,81.04
2023-07-28T05:07:56.627Z,80.98
2023-07-28T05:10:28.141Z,81.01
2023-07-28T05:12:59.681Z,81.02
2023-07-28T05:15:31.125Z,81.01
2023-07-28T05:18:02.678Z,80.76
2023-07-28T05:20:34.256Z,80.96
2023-07-28T05:23:06.259Z,80.77
2023-07-28T05:25:37.970Z,80.74
2023-07-28T05:28:09.486Z,80.75
2023-07-28T05:30:41.164Z,80.81
2023-07-28T05:33:12.635Z,80.77
2023-07-28T05:35:44.190Z,80.65
2023-07-28T05:38:15.914Z,80.65
2023-07-28T05:40:47.406Z,80.62
2023-07-28T05:43:18.878Z,80.54
2023-07-28T05:45:51.173Z,80.54
2023-07-28T05:48:22.666Z,80.48
2023-07-28T05:50:54.820Z,80.49
2023-07-28T05:53:26.612Z,80.39
2023-07-28T05:55:58.106Z,80.33
2023-07-28T05:58:29.604Z,80.12
2023-07-28T06:01:01.279Z,79.99
2023-07-28T06:03:33.030Z,79.89
2023-07-28T06:06:04.964Z,79.97
2023-07-28T06:08:37.519Z,79.64
2023-07-28T06:11:09.844Z,79.50
2023-07-28T06:13:41.516Z,79.34
2023-07-28T06:16:13.160Z,79.22
2023-07-28T06:18:44.781Z,79.14
2023-07-28T06:21:16.323Z,78.68
2023-07-28T06:23:48.169Z,78.43
2023-07-28T06:26:19.610Z,78.49
2023-07-28T06:28:51.668Z,78.56
2023-07-28T06:31:23.320Z,78.46
2023-07-28T06:33:54.916Z,78.51
2023-07-28T06:36:26.474Z,78.44
2023-07-28T06:38:58.089Z,78.15
2023-07-28T06:41:29.537Z,77.81
2023-07-28T06:44:01.025Z,77.82
2023-07-28T06:46:32.602Z,77.89
2023-07-28T06:49:04.779Z,77.63
2023-07-28T06:51:36.653Z,77.45
2023-07-28T06:54:13.407Z,77.26
2023-07-28T06:56:44.940Z,77.20
2023-07-28T06:59:20.591Z,77.43
2023-07-28T07:01:53.962Z,77.30
2023-07-28T07:04:25.633Z,77.05
2023-07-28T07:06:57.131Z,76.99
2023-07-28T07:09:28.571Z,77.18
2023-07-28T07:12:00.012Z,77.01
2023-07-28T07:14:31.544Z,76.79
2023-07-28T07:17:03.016Z,76.90
2023-07-28T07:19:34.912Z,76.77
2023-07-28T07:22:07.195Z,76.78
2023-07-28T07:24:38.665Z,76.81
2023-07-28T07:27:12.132Z,76.99
2023-07-28T07:29:43.846Z,76.84
2023-07-28T07:32:17.170Z,76.79
2023-07-28T07:34:48.825Z,76.47
2023-07-28T07:37:20.301Z,76.33
2023-07-28T07:39:51.814Z,76.50
2023-07-28T07:42:23.267Z,76.53
2023-07-28T07:44:54.704Z,76.30
2023-07-28T07:47:26.093Z,76.11
2023-07-28T07:49:57.772Z,76.13
2023-07-28T07:52:29.236Z,75.95
2023-07-28T07:55:00.875Z,75.88
2023-07-28T07:57:33.526Z,76.05
2023-07-28T08:00:06.181Z,76.01
2023-07-28T08:02:37.686Z,75.56
2023-07-28T08:05:11.109Z,75.37
2023-07-28T08:07:43.256Z,75.49
2023-07-28T08:10:15.039Z,75.34
2023-07-28T08:12:48.441Z,75.08
2023-07-28T08:15:20.045Z,74.95
2023-07-28T08:17:52.273Z,74.81
2023-07-28T08:20:23.810Z,74.49
2023-07-28T08:22:55.305Z,74.21
2023-07-28T08:25:26.743Z,73.80
2023-07-28T08:27:58.261Z,73.28
2023-07-28T08:30:29.914Z,73.20
2023-07-28T08:33:01.494Z,73.06
2023-07-28T08:35:33.223Z,72.97
2023-07-28T08:38:04.886Z,73.03
2023-07-28T08:40:37.809Z,72.95
2023-07-28T08:43:09.760Z,72.75
2023-07-28T08:45:41.502Z,72.37
2023-07-28T08:48:13.386Z,72.52
2023-07-28T08:50:45.028Z,72.30
2023-07-28T08:53:16.710Z,72.10
2023-07-28T08:55:48.965Z,72.40
2023-07-28T08:58:25.380Z,71.96
2023-07-28T09:00:57.070Z,71.57
2023-07-28T09:03:29.285Z,71.07
2023-07-28T09:06:04.660Z,70.92
2023-07-28T09:08:37.016Z,70.78
2023-07-28T09:11:09.048Z,70.59
2023-07-28T09:13:43.996Z,70.64
2023-07-28T09:16:23.224Z,70.33
2023-07-28T09:19:05.874Z,70.12
2023-07-28T09:21:37.669Z,70.40
2023-07-28T09:24:11.937Z,70.26
2023-07-28T09:26:45.690Z,70.09
2023-07-28T09:29:18.917Z,70.10
2023-07-28T09:31:52.562Z,70.13
2023-07-28T09:34:28.766Z,70.23
2023-07-28T09:37:01.229Z,70.20
2023-07-28T09:39:32.992Z,70.32
2023-07-28T09:42:06.311Z,70.07
2023-07-28T09:44:37.750Z,70.18
2023-07-28T09:47:10.052Z,70.23
2023-07-28T09:49:49.514Z,70.03
2023-07-28T09:52:25.455Z,70.00
2023-07-28T09:55:02.064Z,70.20
2023-07-28T09:57:38.487Z,70.14
2023-07-28T10:00:13.878Z,70.42
2023-07-28T10:02:46.713Z,70.16
2023-07-28T10:05:18.925Z,70.13
2023-07-28T10:07:52.788Z,70.21
2023-07-28T10:10:25.013Z,70.34
2023-07-28T10:13:00.341Z,70.55
2023-07-28T10:15:35.149Z,70.34
2023-07-28T10:18:10.497Z,70.16
2023-07-28T10:20:47.696Z,70.37
2023-07-28T10:23:22.716Z,70.19
2023-07-28T10:26:02.859Z,70.21
2023-07-28T10:28:39.445Z,70.23
2023-07-28T10:31:13.072Z,70.06
2023-07-28T10:33:48.053Z,69.72
2023-07-28T10:36:35.685Z,69.77
2023-07-28T10:39:18.130Z,69.07
2023-07-28T10:42:07.684Z,68.73
2023-07-28T10:44:40.840Z,68.22
2023-07-28T10:47:14.430Z,67.93
2023-07-28T10:49:48.983Z,68.07
2023-07-28T10:52:21.422Z,68.05
2023-07-28T10:54:52.912Z,68.33
2023-07-28T10:57:27.345Z,68.65
2023-07-28T11:00:03.163Z,68.95
2023-07-28T11:02:34.792Z,69.59
2023-07-28T11:05:14.401Z,70.18
2023-07-28T11:07:47.004Z,70.75
2023-07-28T11:10:19.295Z,70.68
2023-07-28T11:12:52.507Z,70.48
2023-07-28T11:15:24.568Z,70.30
2023-07-28T11:17:56.818Z,70.52
2023-07-28T11:20:30.188Z,70.18
2023-07-28T11:23:04.500Z,69.95
2023-07-28T11:25:37.614Z,69.83
2023-07-28T11:28:11.486Z,69.65
2023-07-28T11:30:44.994Z,69.38
2023-07-28T11:33:18.209Z,69.44
2023-07-28T11:35:50.044Z,69.47
2023-07-28T11:38:22.614Z,69.06
2023-07-28T11:40:55.639Z,68.22
2023-07-28T11:43:27.546Z,67.97
2023-07-28T11:45:59.226Z,68.26
2023-07-28T11:48:34.052Z,68.59
2023-07-28T11:51:06.579Z,69.07
2023-07-28T11:53:38.525Z,69.14
2023-07-28T11:56:10.821Z,69.57
2023-07-28T11:58:42.648Z,69.31
2023-07-28T12:01:14.973Z,69.12
2023-07-28T12:03:46.669Z,68.84
2023-07-28T12:06:28.859Z,68.69
2023-07-28T12:09:10.274Z,68.25
2023-07-28T12:20:02.178Z,66.94
2023-07-28T12:22:33.792Z,66.55
2023-07-28T12:25:06.426Z,65.88
2023-07-28T12:27:38.382Z,65.93
2023-07-28T12:35:23.355Z,65.88
2023-07-28T12:37:58.268Z,65.64
2023-07-28T12:43:06.537Z,65.65
2023-07-28T12:48:20.323Z,65.83
2023-07-28T12:51:03.762Z,65.84
2023-07-28T12:53:35.774Z,65.10
2023-07-28T12:56:08.121Z,64.44
2023-07-28T13:01:14.007Z,63.33
2023-07-28T13:03:45.611Z,63.81
2023-07-28T13:06:17.192Z,63.79
2023-07-28T13:11:23.086Z,63.86
2023-07-28T13:13:54.609Z,64.10
2023-07-28T13:16:26.895Z,64.51
2023-07-28T13:18:58.693Z,65.10
2023-07-28T13:21:30.118Z,66.05
2023-07-28T13:24:01.592Z,66.03
2023-07-28T13:26:33.044Z,66.06
2023-07-28T13:29:08.046Z,66.23
2023-07-28T13:31:39.724Z,66.07
2023-07-28T13:34:11.529Z,66.25
2023-07-28T13:36:44.801Z,66.85
2023-07-28T13:39:16.341Z,66.46
2023-07-28T13:41:47.813Z,66.07
2023-07-28T13:44:19.392Z,65.96
2023-07-28T13:46:50.892Z,66.03
2023-07-28T13:49:22.442Z,66.10
2023-07-28T13:54:28.299Z,65.02
2023-07-28T13:57:01.732Z,64.47
2023-07-28T13:59:33.437Z,64.46
2023-07-28T14:02:05.122Z,63.96
2023-07-28T14:04:36.656Z,62.38
2023-07-28T14:07:09.412Z,62.01
2023-07-28T14:09:41.124Z,60.88
2023-07-28T14:12:13.182Z,60.19
2023-07-28T14:14:44.988Z,59.10
2023-07-28T14:17:16.444Z,58.39
2023-07-28T14:19:48.134Z,57.49
2023-07-28T14:22:19.749Z,57.70
2023-07-28T14:24:51.464Z,57.58
2023-07-28T14:27:22.928Z,57.40
2023-07-28T14:29:54.440Z,56.74
2023-07-28T14:32:25.965Z,56.23
2023-07-28T14:34:57.546Z,55.68
2023-07-28T14:37:29.105Z,55.44
2023-07-28T14:40:00.625Z,55.26
2023-07-28T14:42:32.135Z,55.08
2023-07-28T14:45:03.722Z,54.90
2023-07-28T14:47:35.312Z,55.28
2023-07-28T14:50:07.952Z,55.47
2023-07-28T14:52:40.468Z,55.30
2023-07-28T14:55:13.734Z,55.21
2023-07-28T14:57:46.989Z,54.43
2023-07-28T15:00:18.730Z,55.25
2023-07-28T15:02:50.270Z,55.10
2023-07-28T15:05:21.764Z,55.08
2023-07-28T15:07:53.185Z,55.08
2023-07-28T15:10:24.940Z,55.14
2023-07-28T15:12:56.472Z,55.07
2023-07-28T15:15:28.358Z,55.21
2023-07-28T15:18:00.091Z,54.95
2023-07-28T15:20:32.263Z,54.95
2023-07-28T15:23:03.817Z,54.41
2023-07-28T15:25:35.665Z,53.98
2023-07-28T15:28:07.599Z,53.97
2023-07-28T15:30:39.267Z,54.14
2023-07-28T15:33:10.794Z,54.33
2023-07-28T15:35:42.504Z,54.80
2023-07-28T15:38:14.536Z,54.74
2023-07-28T15:40:46.038Z,54.76
2023-07-28T15:43:17.524Z,54.06
2023-07-28T15:45:53.385Z,53.49
2023-07-28T15:48:25.334Z,53.56
2023-07-28T15:50:57.109Z,53.08
2023-07-28T15:53:28.496Z,52.75
2023-07-28T15:55:59.939Z,52.72
2023-07-28T15:58:31.361Z,53.26
2023-07-28T16:01:02.882Z,53.29
2023-07-28T16:03:34.406Z,53.67
2023-07-28T16:06:06.306Z,53.65
2023-07-28T16:08:37.868Z,53.24
2023-07-28T16:11:09.377Z,53.04
2023-07-28T16:13:40.845Z,53.11
2023-07-28T16:16:13.087Z,53.62
2023-07-28T16:18:44.661Z,53.71
2023-07-28T16:21:16.197Z,54.00
2023-07-28T16:23:47.672Z,54.30
2023-07-28T16:26:19.390Z,54.46
2023-07-28T16:28:50.845Z,54.45
2023-07-28T16:31:22.474Z,54.79
2023-07-28T16:33:54.062Z,55.76
2023-07-28T16:36:25.615Z,55.73
2023-07-28T16:38:57.075Z,56.21
2023-07-28T16:41:28.763Z,56.81
2023-07-28T16:44:00.220Z,57.74
2023-07-28T16:46:31.819Z,58.34
2023-07-28T16:49:03.298Z,59.03
2023-07-28T16:51:35.276Z,59.84
2023-07-28T16:54:07.447Z,60.58
2023-07-28T16:56:40.836Z,61.19
2023-07-28T16:59:12.522Z,61.53
2023-07-28T17:01:44.108Z,62.07
2023-07-28T17:04:15.807Z,62.39
2023-07-28T17:06:47.303Z,63.06
2023-07-28T17:09:18.798Z,63.31
2023-07-28T17:11:50.298Z,63.71
2023-07-28T17:14:22.317Z,63.98
2023-07-28T17:16:53.854Z,64.23
2023-07-28T17:19:25.472Z,64.30
2023-07-28T17:21:57.182Z,64.59
2023-07-28T17:24:28.807Z,64.59
2023-07-28T17:27:00.440Z,64.72
2023-07-28T17:29:31.924Z,64.72
2023-07-28T17:32:03.458Z,64.79
2023-07-28T17:34:34.924Z,64.92
2023-07-28T17:37:07.018Z,65.05
2023-07-28T17:39:38.739Z,65.29
2023-07-28T17:42:10.433Z,65.57
2023-07-28T17:44:42.242Z,65.76
2023-07-28T17:47:16.490Z,65.70
2023-07-28T17:49:48.010Z,65.76
2023-07-28T17:52:20.676Z,65.89
2023-07-28T17:54:52.174Z,66.10
2023-07-28T17:57:23.824Z,66.23
2023-07-28T17:59:55.618Z,66.34
2023-07-28T18:02:27.184Z,66.49
2023-07-28T18:04:58.768Z,66.50
2023-07-28T18:07:30.582Z,66.67
2023-07-28T18:10:02.011Z,66.80
2023-07-28T18:12:33.766Z,66.82
2023-07-28T18:15:05.848Z,66.96
2023-07-28T18:17:37.501Z,67.11
2023-07-28T18:20:11.026Z,67.33
2023-07-28T18:22:42.555Z,67.48
2023-07-28T18:25:14.919Z,67.53
2023-07-28T18:27:46.396Z,67.52
2023-07-28T18:30:17.996Z,67.89
2023-07-28T18:32:50.154Z,68.08
2023-07-28T18:35:21.737Z,68.37
2023-07-28T18:37:53.260Z,68.50
2023-07-28T18:40:24.813Z,68.60
2023-07-28T18:42:56.848Z,68.89
2023-07-28T18:45:28.589Z,69.10
2023-07-28T18:48:00.176Z,69.67
2023-07-28T18:50:31.826Z,70.28
2023-07-28T18:53:03.295Z,70.67
2023-07-28T18:55:34.793Z,70.98
2023-07-28T18:58:06.233Z,71.23
2023-07-28T19:00:37.672Z,71.45
2023-07-28T19:03:09.270Z,71.83
2023-07-28T19:05:41.102Z,72.02
2023-07-28T19:08:12.577Z,72.29
2023-07-28T19:10:45.367Z,72.46
2023-07-28T19:13:17.095Z,72.63
2023-07-28T19:15:48.660Z,72.77
2023-07-28T19:18:21.478Z,72.85
2023-07-28T19:20:53.418Z,72.90
2023-07-28T19:23:25.889Z,72.94
2023-07-28T19:25:57.425Z,73.04
2023-07-28T19:28:28.986Z,72.98
2023-07-28T19:31:05.085Z,73.07
2023-07-28T19:33:37.113Z,73.18
2023-07-28T19:36:09.813Z,73.34
2023-07-28T19:38:41.359Z,73.41
2023-07-28T19:41:13.348Z,73.58
2023-07-28T19:43:45.123Z,73.71
2023-07-28T19:46:22.957Z,73.94
2023-07-28T19:48:54.974Z,74.05
2023-07-28T19:51:26.486Z,74.07
2023-07-28T19:54:00.558Z,74.19
2023-07-28T19:56:32.382Z,74.17
2023-07-28T19:59:04.689Z,74.30
2023-07-28T20:01:36.644Z,74.33
2023-07-28T20:04:08.447Z,74.34
2023-07-28T20:06:40.296Z,74.38
2023-07-28T20:09:13.672Z,74.36
2023-07-28T20:11:45.138Z,74.43
2023-07-28T20:14:16.856Z,74.51
2023-07-28T20:16:48.737Z,74.62
2023-07-28T20:19:20.399Z,74.57
2023-07-28T20:21:52.012Z,74.63
2023-07-28T20:24:23.735Z,74.67
2023-07-28T20:26:56.114Z,74.75
2023-07-28T20:29:28.225Z,74.93
2023-07-28T20:31:59.801Z,74.95
2023-07-28T20:34:33.670Z,74.96
2023-07-28T20:37:05.785Z,75.09
2023-07-28T20:39:37.734Z,74.98
2023-07-28T20:42:10.159Z,75.08
2023-07-28T20:44:41.737Z,75.09
2023-07-28T20:47:14.123Z,75.06
2023-07-28T20:49:45.653Z,75.09
2023-07-28T20:52:17.184Z,75.25
2023-07-28T20:54:51.110Z,75.24
2023-07-28T20:57:22.743Z,75.30
2023-07-28T20:59:54.322Z,75.25
2023-07-28T21:02:26.050Z,75.42
2023-07-28T21:04:59.878Z,75.42
2023-07-28T21:07:31.883Z,75.56
2023-07-28T21:10:04.124Z,75.67
2023-07-28T21:12:35.841Z,75.74
2023-07-28T21:15:09.312Z,75.87
2023-07-28T21:17:42.813Z,76.05
2023-07-28T21:20:16.669Z,76.16
2023-07-28T21:22:48.375Z,76.29
2023-07-28T21:25:19.943Z,76.43
2023-07-28T21:27:51.451Z,76.66
2023-07-28T21:30:23.983Z,76.80
2023-07-28T21:33:02.444Z,76.97
2023-07-28T21:35:34.824Z,77.12
2023-07-28T21:38:07.232Z,77.31
2023-07-28T21:40:40.644Z,77.33
2023-07-28T21:43:13.430Z,77.31
2023-07-28T21:45:46.586Z,77.37
2023-07-28T21:48:21.264Z,77.51
2023-07-28T21:50:52.852Z,77.56
2023-07-28T21:53:24.479Z,77.55
2023-07-28T21:55:56.037Z,77.75
2023-07-28T21:58:27.676Z,77.69
2023-07-28T22:00:59.259Z,77.78
2023-07-28T22:03:30.922Z,77.74
2023-07-28T22:06:03.591Z,77.74
2023-07-28T22:08:35.420Z,77.84
2023-07-28T22:11:07.270Z,77.91
2023-07-28T22:13:38.704Z,78.01
2023-07-28T22:16:10.488Z,77.97
2023-07-28T22:18:42.340Z,78.02
2023-07-28T22:21:14.148Z,78.11
2023-07-28T22:23:45.671Z,78.11
2023-07-28T22:26:17.143Z,78.06
2023-07-28T22:28:48.661Z,78.13
2023-07-28T22:31:20.229Z,78.13
2023-07-28T22:33:52.498Z,78.08
2023-07-28T22:36:24.025Z,78.10
2023-07-28T22:38:55.429Z,78.10
2023-07-28T22:41:27.212Z,78.13
2023-07-28T22:44:00.140Z,78.13
2023-07-28T22:46:31.893Z,78.08
2023-07-28T22:49:03.492Z,78.06
2023-07-28T22:51:34.928Z,78.01
2023-07-28T22:54:06.569Z,78.13
2023-07-28T22:56:38.249Z,78.18
2023-07-28T22:59:10.061Z,78.19
2023-07-28T23:01:42.101Z,78.28
2023-07-28T23:04:13.783Z,78.25
2023-07-28T23:06:45.260Z,78.42
2023-07-28T23:09:16.728Z,78.37
2023-07-28T23:11:48.249Z,78.41
2023-07-28T23:14:19.661Z,78.36
2023-07-28T23:16:51.613Z,78.36
2023-07-28T23:19:23.107Z,78.39
2023-07-28T23:21:54.935Z,78.39
2023-07-28T23:24:26.451Z,78.53
2023-07-28T23:26:57.960Z,78.44
2023-07-28T23:29:29.393Z,78.51
2023-07-28T23:32:00.865Z,78.37
2023-07-28T23:34:34.731Z,78.39
2023-07-28T23:37:10.257Z,78.36
2023-07-28T23:39:41.700Z,78.39
2023-07-28T23:42:13.272Z,78.46
2023-07-28T23:44:44.925Z,78.64
2023-07-28T23:47:16.644Z,78.74
2023-07-28T23:49:48.111Z,78.64
2023-07-28T23:52:19.764Z,78.67
2023-07-28T23:54:52.404Z,78.74
2023-07-28T23:57:24.017Z,78.80
2023-07-28T23:59:55.453Z,78.79
